Weather History for Mosby, MO

Change the Weather History Date:

Thursday, December 20, 2012

  Actual Average (KMKC) Record (KMKC)
Temperature  
Mean Temperature 30 °F -  
Max Temperature 37 °F 37 °F 52 °F (2001)
Min Temperature 23 °F 21 °F 6 °F (2008)
Degree Days  
Heating Degree Days 35    
Moisture  
Dew Point 24 °F    
Average Humidity 84    
Maximum Humidity 100    
Minimum Humidity 69    
Precipitation  
Precipitation 0.00 in - - ()
Sea Level Pressure  
Sea Level Pressure 29.84 in    
Wind  
Wind Speed 19 mph (NW)    
Max Wind Speed 31 mph    
Max Gust Speed 40 mph    
Visibility 6 miles    
Events Rain , Snow , Thunderstorm    
Averages and records for this station are not official NWS values.
T = Trace of Precipitation, MM = Missing Value Source: NWS Daily Summary

Daily Weather History Graph

Daily Weather History Graph

Search for Another Location

Airport:

Trip Planner

Search our weather history database for the weather conditions in past years. The results will help you decide how hot, cold, wet, or windy it might be!

Date:

Astronomy

Dec. 20, 2012 Rise Set
Actual Time 7:33 AM CST 4:57 PM CST
Civil Twilight 7:03 AM CST 5:27 PM CST
Nautical Twilight 6:29 AM CST 6:01 PM CST
Astronomical Twilight 5:56 AM CST 6:33 PM CST
Moon 12:13 PM CST (12/20) 12:22 AM CST (12/20)
Length of Visible Light 10h 24m
Length of Day
9h 23m
First Quarter, 55% of the Moon is Illuminated
Dec 20
First Quarter
Dec 28
Full
Jan 4
Last Quarter
Jan 11
New
Jan 18
First Quarter

Hourly Weather History & Observations

Time (CST) Temp. Windchill Dew Point Humidity Pressure Visibility Wind Dir Wind Speed Gust Speed Precip Events Conditions
12:15 AM 37.4 °F 28.2 °F 35.6 °F 93% 29.44 in 10.0 mi NNW 16.1 mph 20.7 mph N/A Rain , Thunderstorm Light Thunderstorms and Rain
12:35 AM 37.4 °F 28.9 °F 35.6 °F 93% 29.44 in 7.0 mi NNW 13.8 mph 19.6 mph N/A   Unknown
12:55 AM 35.6 °F 25.5 °F 35.6 °F 100% 29.42 in 2.5 mi NNW 17.3 mph 25.3 mph N/A   Overcast
1:15 AM 35.6 °F 25.5 °F 35.6 °F 100% 29.41 in 2.5 mi North 17.3 mph 23.0 mph N/A   Light Drizzle
1:35 AM 35.6 °F 24.5 °F 35.6 °F 100% 29.40 in 2.5 mi North 20.7 mph 25.3 mph N/A   Overcast
1:55 AM 35.6 °F 25.5 °F 35.6 °F 100% 29.40 in 3.0 mi North 17.3 mph 25.3 mph N/A   Overcast
2:15 AM 35.6 °F 24.2 °F 33.8 °F 93% 29.39 in 2.5 mi NNW 21.9 mph 27.6 mph N/A   Overcast
2:35 AM 35.6 °F 25.2 °F 33.8 °F 93% 29.37 in 2.0 mi NNW 18.4 mph - N/A Rain , Thunderstorm Light Thunderstorms and Rain
2:55 AM 33.8 °F 21.3 °F 33.8 °F 100% 29.38 in 3.0 mi NNW 24.2 mph 31.1 mph N/A Snow , Thunderstorm Light Thunderstorms and Snow
3:15 AM 33.8 °F 23.9 °F 32.0 °F 93% 29.40 in 1.2 mi NW 15.0 mph 26.5 mph N/A Snow , Thunderstorm Light Thunderstorms and Snow
3:35 AM 33.8 °F 21.6 °F 32.0 °F 93% 29.38 in 2.0 mi NNW 23.0 mph 29.9 mph N/A Snow Light Snow
3:55 AM 33.8 °F 23.5 °F 32.0 °F 93% 29.41 in 1.2 mi NNW 16.1 mph 23.0 mph N/A Snow Light Snow
4:15 AM 32.0 °F 21.2 °F 32.0 °F 100% 29.42 in 0.5 mi NNW 16.1 mph 23.0 mph N/A Snow Snow
4:35 AM 32.0 °F 21.2 °F 32.0 °F 100% 29.42 in 0.5 mi NW 16.1 mph 25.3 mph N/A Snow Light Snow
4:55 AM 32.0 °F 20.1 °F 32.0 °F 100% 29.44 in 0.2 mi NW 19.6 mph 24.2 mph N/A Snow Snow
5:15 AM 32.0 °F 19.5 °F 32.0 °F 100% 29.46 in 0.5 mi NW 21.9 mph 28.8 mph N/A Snow Snow
5:35 AM 32.0 °F 18.4 °F 32.0 °F 100% 29.49 in 0.5 mi NW 26.5 mph 34.5 mph N/A Snow Snow
5:55 AM 32.0 °F 20.1 °F 32.0 °F 100% 29.51 in 0.2 mi NW 19.6 mph 32.2 mph N/A Snow Snow
6:15 AM 32.0 °F 18.1 °F 30.2 °F 93% 29.54 in 0.2 mi NW 27.6 mph 35.7 mph N/A Snow Snow
6:35 AM 30.2 °F 16.5 °F 30.2 °F 100% 29.57 in 0.5 mi NW 24.2 mph 33.4 mph N/A Snow Light Snow
6:55 AM 30.2 °F 15.9 °F 28.4 °F 93% 29.59 in 0.2 mi NW 26.5 mph 38.0 mph N/A Snow Snow
7:15 AM 30.2 °F 15.9 °F 28.4 °F 93% 29.61 in 0.5 mi NW 26.5 mph 40.3 mph N/A Snow Light Snow
7:35 AM 28.4 °F 13.8 °F 26.6 °F 93% 29.64 in 0.5 mi NW 25.3 mph 36.8 mph N/A Snow Light Snow
7:55 AM 28.4 °F 12.5 °F 26.6 °F 93% 29.67 in 0.5 mi NW 31.1 mph 39.1 mph N/A Snow Light Snow
8:15 AM 28.4 °F 13.3 °F 26.6 °F 93% 29.69 in 0.5 mi NW 27.6 mph 39.1 mph N/A Snow Light Snow
8:35 AM 28.4 °F 13.0 °F 26.6 °F 93% 29.73 in 0.5 mi NW 28.8 mph 34.5 mph N/A Snow Light Snow
8:55 AM 26.6 °F 11.4 °F 26.6 °F 100% 29.76 in 0.5 mi NW 25.3 mph 35.7 mph N/A Snow Light Snow
9:15 AM 28.4 °F 13.0 °F 24.8 °F 86% 29.78 in 1.2 mi NW 28.8 mph 35.7 mph N/A Snow Light Snow
9:35 AM 26.6 °F 12.4 °F 23.0 °F 86% 29.80 in 2.0 mi NW 21.9 mph 32.2 mph N/A Snow Light Snow
9:55 AM 26.6 °F 13.1 °F 23.0 °F 86% 29.82 in 2.5 mi NW 19.6 mph 36.8 mph N/A Snow Light Snow
10:15 AM 28.4 °F 14.7 °F 23.0 °F 80% 29.84 in 5.0 mi NW 21.9 mph 32.2 mph N/A   Overcast
10:35 AM 26.6 °F 13.1 °F 23.0 °F 86% 29.86 in 7.0 mi NW 19.6 mph 31.1 mph N/A   Overcast
10:55 AM 28.4 °F 16.2 °F 23.0 °F 80% 29.87 in 7.0 mi WNW 17.3 mph 28.8 mph N/A   Overcast
11:15 AM 26.6 °F 13.1 °F 21.2 °F 80% 29.89 in 7.0 mi WNW 19.6 mph 32.2 mph N/A   Overcast
11:35 AM 26.6 °F 13.4 °F 21.2 °F 80% 29.90 in 7.0 mi WNW 18.4 mph 32.2 mph N/A   Overcast
11:55 AM 26.6 °F 11.7 °F 21.2 °F 80% 29.91 in 5.0 mi NW 24.2 mph 35.7 mph N/A   Overcast
12:15 PM 26.6 °F 13.4 °F 21.2 °F 80% 29.93 in 5.0 mi NW 18.4 mph 28.8 mph N/A   Haze
12:35 PM 26.6 °F 12.7 °F 21.2 °F 80% 29.94 in 7.0 mi WNW 20.7 mph 29.9 mph N/A   Overcast
12:55 PM 26.6 °F 12.0 °F 21.2 °F 80% 29.94 in 7.0 mi WNW 23.0 mph 31.1 mph N/A   Overcast
1:15 PM 26.6 °F 13.1 °F 21.2 °F 80% 29.95 in 10.0 mi WNW 19.6 mph 31.1 mph N/A   Overcast
1:35 PM 26.6 °F 12.0 °F 21.2 °F 80% 29.95 in 10.0 mi WNW 23.0 mph 31.1 mph N/A   Overcast
1:55 PM 26.6 °F 12.0 °F 21.2 °F 80% 29.96 in 10.0 mi WNW 23.0 mph 27.6 mph N/A   Overcast
2:15 PM 26.6 °F 12.4 °F 21.2 °F 80% 29.97 in 10.0 mi WNW 21.9 mph 29.9 mph N/A   Overcast
2:35 PM 26.6 °F 13.4 °F 21.2 °F 80% 29.99 in 10.0 mi WNW 18.4 mph 31.1 mph N/A   Overcast
2:55 PM 28.4 °F 14.7 °F 21.2 °F 74% 30.00 in 10.0 mi WNW 21.9 mph 27.6 mph N/A   Mostly Cloudy
3:15 PM 28.4 °F 15.4 °F 21.2 °F 74% 30.02 in 10.0 mi WNW 19.6 mph 31.1 mph N/A   Scattered Clouds
3:35 PM 28.4 °F 15.4 °F 21.2 °F 74% 30.03 in 10.0 mi WNW 19.6 mph 26.5 mph N/A   Scattered Clouds
3:55 PM 28.4 °F 17.0 °F 21.2 °F 74% 30.05 in 10.0 mi WNW 15.0 mph 32.2 mph N/A   Scattered Clouds
4:15 PM 28.4 °F 16.6 °F 21.2 °F 74% 30.06 in 10.0 mi WNW 16.1 mph 28.8 mph N/A   Clear
4:35 PM 28.4 °F 17.0 °F 19.4 °F 69% 30.07 in 10.0 mi WNW 15.0 mph 29.9 mph N/A   Clear
4:55 PM 28.4 °F 15.8 °F 21.2 °F 74% 30.08 in 10.0 mi WNW 18.4 mph 24.2 mph N/A   Clear
5:15 PM 26.6 °F 13.8 °F 19.4 °F 74% 30.09 in 10.0 mi WNW 17.3 mph 23.0 mph N/A   Clear
5:35 PM 26.6 °F 13.1 °F 19.4 °F 74% 30.10 in 10.0 mi WNW 19.6 mph 26.5 mph N/A   Clear
5:55 PM 26.6 °F 13.8 °F 19.4 °F 74% 30.11 in 10.0 mi WNW 17.3 mph 26.5 mph N/A   Clear
6:15 PM 26.6 °F 13.1 °F 19.4 °F 74% 30.12 in 10.0 mi WNW 19.6 mph 25.3 mph N/A   Clear
6:35 PM 26.6 °F 15.2 °F 19.4 °F 74% 30.13 in 10.0 mi WNW 13.8 mph 24.2 mph N/A   Clear
6:55 PM 26.6 °F 16.2 °F 19.4 °F 74% 30.14 in 10.0 mi WNW 11.5 mph 20.7 mph N/A   Clear
7:15 PM 26.6 °F 15.7 °F 19.4 °F 74% 30.14 in 10.0 mi WNW 12.7 mph 19.6 mph N/A   Clear
7:35 PM 26.6 °F 16.8 °F 19.4 °F 74% 30.15 in 10.0 mi WNW 10.4 mph 18.4 mph N/A   Clear
7:55 PM 26.6 °F 16.2 °F 19.4 °F 74% 30.15 in 10.0 mi WNW 11.5 mph 18.4 mph N/A   Unknown
8:15 PM 26.6 °F 17.5 °F 19.4 °F 74% 30.15 in 10.0 mi WNW 9.2 mph - N/A   Clear
8:35 PM 26.6 °F 15.2 °F 19.4 °F 74% 30.16 in 10.0 mi WNW 13.8 mph 19.6 mph N/A   Clear
8:55 PM 26.6 °F 16.2 °F 19.4 °F 74% 30.16 in 10.0 mi WNW 11.5 mph 19.6 mph N/A   Clear
9:15 PM 26.6 °F 16.8 °F 17.6 °F 69% 30.16 in 10.0 mi WNW 10.4 mph - N/A   Clear
9:35 PM 24.8 °F 15.3 °F 17.6 °F 74% 30.17 in 10.0 mi WNW 9.2 mph - N/A   Clear
9:55 PM 24.8 °F 16.9 °F 17.6 °F 74% 30.18 in 10.0 mi West 6.9 mph - N/A   Clear
10:15 PM 24.8 °F 16.1 °F 17.6 °F 74% 30.19 in 10.0 mi West 8.1 mph - N/A   Clear
10:35 PM 23.0 °F 14.7 °F 15.8 °F 74% 30.19 in 10.0 mi West 6.9 mph - N/A   Clear
10:55 PM 23.0 °F 13.9 °F 15.8 °F 74% 30.20 in 10.0 mi West 8.1 mph - N/A   Clear
11:15 PM 23.0 °F 14.7 °F 15.8 °F 74% 30.20 in 10.0 mi West 6.9 mph - N/A   Clear
11:35 PM 23.0 °F 13.1 °F 15.8 °F 74% 30.21 in 10.0 mi West 9.2 mph - N/A   Clear
11:55 PM 24.8 °F 12.9 °F 15.8 °F 69% 30.21 in 10.0 mi WNW 13.8 mph - N/A   Clear